Avel Mor — WDJ6634 — position and weather

sailwx.info

Track history (hours):
 
Tides and Currents Weather Stations Pressure Air Temp Water Temp Dewpoint Dewpoint Depression Visibility Wind Speed Wind Dir Waves Ship Positions

Avel Mor

Owner: Ariantes LLC, Yorba Linda, CA. More information available from US FCC via Universal Licensing System and Coast Guard Vessel Documentation Center.

Last reported at 2017-Dec-16 01:58 UTC. Time now 2018-Jan-19 09:08 UTC.
Position N 33°11' W 117°46'.
Warning: this ship's position is 34 days out of date.

Length 16 m.

Type: Sailing vessel. MMSI: 367799710.

Date/timePositionNaut miles runAvg speedWind from/ knotsBaromVisibWave heightAir tempDewpointWater temp
2017-Dec-16 01:58N 33°11' W 117°46'4 8.0
2017-Dec-16 01:30N 33°08' W 117°43'4 8.1
2017-Dec-16 01:00N 33°05' W 117°40'4 8.0
2017-Dec-16 00:30N 33°02' W 117°38'4 8.1
2017-Dec-16 00:00N 32°58' W 117°35'4 8.2
2017-Dec-15 23:30N 32°55' W 117°32'4 8.0
2017-Dec-15 23:00N 32°52' W 117°29'4 7.9
2017-Dec-15 22:30N 32°49' W 117°26'4 7.4
2017-Dec-15 22:00N 32°46' W 117°23'  
2017-Dec-10 21:02N 32°44' W 117°21'0 7.3
2017-Dec-10 21:00N 32°44' W 117°21'4 6.9
2017-Dec-10 20:30N 32°47' W 117°24'3 6.8
2017-Dec-10 20:00N 32°49' W 117°27'3 6.9
2017-Dec-10 19:30N 32°52' W 117°29'4 6.6
2017-Dec-10 18:56N 32°55' W 117°32'4 6.4
2017-Dec-10 18:14N 32°58' W 117°36'1 6.3
2017-Dec-10 18:00N 32°59' W 117°37'3 6.4
2017-Dec-10 17:30N 33°02' W 117°39'  
Track history (hours):
 
Tides and Currents Weather Stations Pressure Air Temp Water Temp Dewpoint Dewpoint Depression Visibility Wind Speed Wind Dir Waves Ship Positions

Avel Mor

Owner: Ariantes LLC, Yorba Linda, CA. More information available from US FCC via Universal Licensing System and Coast Guard Vessel Documentation Center.

Last reported at 2017-Dec-16 01:58 UTC. Time now 2018-Jan-19 09:08 UTC.
Position N 33°11' W 117°46'.
Warning: this ship's position is 34 days out of date.

Length 16 m.

Type: Sailing vessel. MMSI: 367799710.

Date/timePositionNaut miles runAvg speedWind from/ knotsBaromVisibWave heightAir tempDewpointWater temp
2017-Dec-16 01:58N 33°11' W 117°46'4 8.0
2017-Dec-16 01:30N 33°08' W 117°43'4 8.1
2017-Dec-16 01:00N 33°05' W 117°40'4 8.0
2017-Dec-16 00:30N 33°02' W 117°38'4 8.1
2017-Dec-16 00:00N 32°58' W 117°35'4 8.2
2017-Dec-15 23:30N 32°55' W 117°32'4 8.0
2017-Dec-15 23:00N 32°52' W 117°29'4 7.9
2017-Dec-15 22:30N 32°49' W 117°26'4 7.4
2017-Dec-15 22:00N 32°46' W 117°23'  
2017-Dec-10 21:02N 32°44' W 117°21'0 7.3
2017-Dec-10 21:00N 32°44' W 117°21'4 6.9
2017-Dec-10 20:30N 32°47' W 117°24'3 6.8
2017-Dec-10 20:00N 32°49' W 117°27'3 6.9
2017-Dec-10 19:30N 32°52' W 117°29'4 6.6
2017-Dec-10 18:56N 32°55' W 117°32'4 6.4
2017-Dec-10 18:14N 32°58' W 117°36'1 6.3
2017-Dec-10 18:00N 32°59' W 117°37'3 6.4
2017-Dec-10 17:30N 33°02' W 117°39'  

Dump ship's entire track history